createdAt,value
2019-02-14T00:00:53.204Z,7.43
2019-02-14T00:01:53.137Z,7.30
2019-02-14T00:02:53.119Z,7.39
2019-02-14T00:03:53.164Z,7.40
2019-02-14T00:04:53.104Z,7.32
2019-02-14T00:05:53.091Z,7.27
2019-02-14T00:06:53.077Z,7.32
2019-02-14T00:07:53.070Z,7.34
2019-02-14T00:08:53.054Z,7.34
2019-02-14T00:09:53.092Z,7.37
2019-02-14T00:10:53.920Z,7.45
2019-02-14T00:11:53.023Z,7.37
2019-02-14T00:12:53.060Z,7.40
2019-02-14T00:13:53.043Z,7.42
2019-02-14T00:14:53.004Z,7.40
2019-02-14T00:15:53.029Z,7.35
2019-02-14T00:16:52.986Z,7.35
2019-02-14T00:17:53.040Z,7.37
2019-02-14T00:18:52.953Z,7.30
2019-02-14T00:19:53.001Z,7.34
2019-02-14T00:20:52.967Z,7.32
2019-02-14T00:21:52.927Z,7.30
2019-02-14T00:22:52.958Z,7.37
2019-02-14T00:23:52.905Z,7.40
2019-02-14T00:24:52.888Z,7.40
2019-02-14T00:25:52.917Z,7.43
2019-02-14T00:26:52.887Z,7.48
2019-02-14T00:27:52.852Z,7.45
2019-02-14T00:28:52.845Z,7.37
2019-02-14T00:29:52.828Z,7.42
2019-02-14T00:30:52.828Z,7.39
2019-02-14T00:31:52.860Z,7.31
2019-02-14T00:32:52.842Z,7.39
2019-02-14T00:33:52.798Z,7.34
2019-02-14T00:34:52.788Z,7.32
2019-02-14T00:35:52.844Z,7.35
2019-02-14T00:36:52.755Z,7.27
2019-02-14T00:37:52.783Z,7.42
2019-02-14T00:38:52.757Z,7.32
2019-02-14T00:39:52.764Z,7.39
2019-02-14T00:40:52.708Z,7.35
2019-02-14T00:41:52.710Z,7.34
2019-02-14T00:42:52.689Z,7.31
2019-02-14T00:43:52.733Z,7.37
2019-02-14T00:44:52.838Z,7.34
2019-02-14T00:45:52.669Z,7.31
2019-02-14T00:46:52.651Z,7.34
2019-02-14T00:47:52.644Z,7.32
2019-02-14T00:48:52.621Z,7.28
2019-02-14T00:49:52.674Z,7.39
2019-02-14T00:50:52.607Z,7.35
2019-02-14T00:51:52.588Z,7.34
2019-02-14T00:52:52.581Z,7.37
2019-02-14T00:53:52.607Z,7.34
2019-02-14T00:54:52.561Z,7.30
2019-02-14T00:55:52.594Z,7.34
2019-02-14T00:56:52.568Z,7.43
2019-02-14T00:57:52.573Z,7.35
2019-02-14T00:58:52.516Z,7.37
2019-02-14T00:59:52.506Z,7.34
2019-02-14T01:00:52.496Z,7.34
2019-02-14T01:01:52.515Z,7.30
2019-02-14T01:02:52.478Z,7.28
2019-02-14T01:03:52.516Z,7.24
2019-02-14T01:04:52.452Z,7.30
2019-02-14T01:05:52.439Z,7.32
2019-02-14T01:06:52.430Z,7.39
2019-02-14T01:07:52.440Z,7.35
2019-02-14T01:08:52.445Z,7.30
2019-02-14T01:09:52.402Z,7.35
2019-02-14T01:10:52.390Z,7.32
2019-02-14T01:11:52.414Z,7.32
2019-02-14T01:12:52.365Z,7.31
2019-02-14T01:13:52.372Z,7.31
2019-02-14T01:14:52.382Z,7.37
2019-02-14T01:15:52.342Z,7.34
2019-02-14T01:16:52.381Z,7.35
2019-02-14T01:17:52.319Z,7.37
2019-02-14T01:18:52.302Z,7.39
2019-02-14T01:19:52.318Z,7.39
2019-02-14T01:20:52.333Z,7.39
2019-02-14T01:21:52.971Z,7.34
2019-02-14T01:22:52.266Z,7.30
2019-02-14T01:23:52.265Z,7.28
2019-02-14T01:24:52.244Z,7.24
2019-02-14T01:25:52.276Z,7.27
2019-02-14T01:26:52.223Z,7.25
2019-02-14T01:27:52.277Z,7.27
2019-02-14T01:28:52.210Z,7.28
2019-02-14T01:29:52.184Z,7.28
2019-02-14T01:30:52.189Z,7.30
2019-02-14T01:31:52.206Z,7.31
2019-02-14T01:32:52.158Z,7.34
2019-02-14T01:33:52.140Z,7.32
2019-02-14T01:34:52.134Z,7.37
2019-02-14T01:35:52.158Z,7.35
2019-02-14T01:36:52.131Z,7.35
2019-02-14T01:37:52.161Z,7.35
2019-02-14T01:38:52.131Z,7.32
2019-02-14T01:39:52.128Z,7.24
2019-02-14T01:40:52.107Z,7.24
2019-02-14T01:41:52.064Z,7.28
2019-02-14T01:42:52.053Z,7.25
2019-02-14T01:43:52.082Z,7.40
2019-02-14T01:44:52.022Z,7.27
2019-02-14T01:45:52.016Z,7.23
2019-02-14T01:46:52.009Z,7.21
2019-02-14T01:47:52.032Z,7.27
2019-02-14T01:48:52.100Z,7.30
2019-02-14T01:49:51.986Z,7.20
2019-02-14T01:50:51.972Z,7.30
2019-02-14T01:51:51.948Z,7.25
2019-02-14T01:52:51.956Z,7.21
2019-02-14T01:53:51.939Z,7.23
2019-02-14T01:54:51.970Z,7.23
2019-02-14T01:55:51.929Z,7.23
2019-02-14T01:56:51.904Z,7.21
2019-02-14T01:57:51.952Z,7.21
2019-02-14T01:58:51.905Z,7.27
2019-02-14T01:59:51.912Z,7.23
2019-02-14T02:00:51.858Z,7.25
2019-02-14T02:01:51.891Z,7.17
2019-02-14T02:02:51.841Z,7.24
2019-02-14T02:03:51.863Z,7.24
2019-02-14T02:04:51.826Z,7.23
2019-02-14T02:05:51.953Z,7.24
2019-02-14T02:06:51.802Z,7.17
2019-02-14T02:07:51.808Z,7.25
2019-02-14T02:08:51.773Z,7.24
2019-02-14T02:09:51.760Z,7.28
2019-02-14T02:10:51.825Z,7.28
2019-02-14T02:11:51.739Z,7.31
2019-02-14T02:12:51.739Z,7.28
2019-02-14T02:13:51.727Z,7.23
2019-02-14T02:14:51.713Z,7.24
2019-02-14T02:15:51.703Z,7.25
2019-02-14T02:16:51.762Z,7.35
2019-02-14T02:17:51.676Z,7.23
2019-02-14T02:18:51.691Z,7.23
2019-02-14T02:19:51.684Z,7.25
2019-02-14T02:20:51.652Z,7.27
2019-02-14T02:21:51.945Z,7.31
2019-02-14T02:22:51.659Z,7.21
2019-02-14T02:23:51.646Z,7.32
2019-02-14T02:24:51.622Z,7.31
2019-02-14T02:25:51.614Z,7.45
2019-02-14T02:26:51.633Z,7.30
2019-02-14T02:27:51.609Z,7.39
2019-02-14T02:28:51.557Z,7.32
2019-02-14T02:29:51.561Z,7.32
2019-02-14T02:30:51.558Z,7.34
2019-02-14T02:31:51.559Z,7.40
2019-02-14T02:32:51.516Z,7.32
2019-02-14T02:33:51.547Z,7.30
2019-02-14T02:34:51.496Z,7.39
2019-02-14T02:35:59.951Z,7.32
2019-02-14T02:36:52.474Z,7.32
2019-02-14T02:37:51.506Z,7.39
2019-02-14T02:38:51.510Z,7.32
2019-02-14T02:39:51.466Z,7.37
2019-02-14T02:40:51.446Z,7.43
2019-02-14T02:41:51.430Z,7.40
2019-02-14T02:42:51.422Z,7.32
2019-02-14T02:43:51.420Z,7.35
2019-02-14T02:44:51.428Z,7.45
2019-02-14T02:45:51.382Z,7.43
2019-02-14T02:46:51.374Z,7.28
2019-02-14T02:47:51.409Z,7.48
2019-02-14T02:48:51.357Z,7.34
2019-02-14T02:49:51.336Z,7.32
2019-02-14T02:50:51.369Z,7.32
2019-02-14T02:51:51.316Z,7.45
2019-02-14T02:52:51.316Z,7.37
2019-02-14T02:53:51.357Z,7.52
2019-02-14T02:54:51.319Z,7.46
2019-02-14T02:55:51.280Z,7.43
2019-02-14T02:56:51.264Z,7.43
2019-02-14T02:57:51.251Z,7.45
2019-02-14T02:58:51.245Z,7.42
2019-02-14T02:59:51.293Z,7.52
2019-02-14T03:00:51.228Z,7.42
2019-02-14T03:01:51.254Z,7.42
2019-02-14T03:02:51.204Z,7.40
2019-02-14T03:03:51.185Z,7.45
2019-02-14T03:04:51.226Z,7.45
2019-02-14T03:05:51.198Z,7.39
2019-02-14T03:06:51.147Z,7.35
2019-02-14T03:07:51.140Z,7.34
2019-02-14T03:08:51.134Z,7.35
2019-02-14T03:09:51.120Z,7.42
2019-02-14T03:10:51.147Z,7.37
2019-02-14T03:11:51.138Z,7.34
2019-02-14T03:12:51.088Z,7.37
2019-02-14T03:13:51.073Z,7.27
2019-02-14T03:14:51.094Z,7.34
2019-02-14T03:15:51.058Z,7.35
2019-02-14T03:16:51.099Z,7.37
2019-02-14T03:17:51.033Z,7.40
2019-02-14T03:18:51.023Z,7.46
2019-02-14T03:19:51.047Z,7.40
2019-02-14T03:20:51.001Z,7.37
2019-02-14T03:21:51.003Z,7.37
2019-02-14T03:22:51.038Z,7.40
2019-02-14T03:23:50.994Z,7.40
2019-02-14T03:24:50.963Z,7.30
2019-02-14T03:25:50.994Z,7.35
2019-02-14T03:26:50.983Z,7.45
2019-02-14T03:27:50.977Z,7.46
2019-02-14T03:28:50.920Z,7.46
2019-02-14T03:29:50.903Z,7.48
2019-02-14T03:30:50.902Z,7.45
2019-02-14T03:31:50.944Z,7.43
2019-02-14T03:32:50.897Z,7.45
2019-02-14T03:33:50.870Z,7.42
2019-02-14T03:34:50.883Z,7.48
2019-02-14T03:35:50.846Z,7.43
2019-02-14T03:36:50.829Z,7.45
2019-02-14T03:37:50.875Z,7.43
2019-02-14T03:38:50.822Z,7.37
2019-02-14T03:39:50.809Z,7.43
2019-02-14T03:40:50.829Z,7.34
2019-02-14T03:41:50.780Z,7.34
2019-02-14T03:42:50.767Z,7.31
2019-02-14T03:43:50.755Z,7.30
2019-02-14T03:44:50.795Z,7.35
2019-02-14T03:45:50.744Z,7.25
2019-02-14T03:46:50.760Z,7.30
2019-02-14T03:47:50.725Z,7.28
2019-02-14T03:48:50.708Z,7.24
2019-02-14T03:49:50.699Z,7.24
2019-02-14T03:50:50.686Z,7.30
2019-02-14T03:51:50.740Z,7.23
2019-02-14T03:52:50.663Z,7.20
2019-02-14T03:53:50.695Z,7.23
2019-02-14T03:54:50.644Z,7.27
2019-02-14T03:55:50.631Z,7.25
2019-02-14T03:56:50.624Z,7.17
2019-02-14T03:57:50.652Z,7.25
2019-02-14T03:58:50.595Z,7.27
2019-02-14T03:59:50.585Z,7.27
2019-02-14T04:00:50.576Z,7.24
2019-02-14T04:01:50.611Z,7.20
2019-02-14T04:02:50.553Z,7.25
2019-02-14T04:03:50.589Z,7.30
2019-02-14T04:04:50.539Z,7.34
2019-02-14T04:05:50.537Z,7.24
2019-02-14T04:06:50.508Z,7.13
2019-02-14T04:07:50.553Z,7.27
2019-02-14T04:08:50.497Z,7.25
2019-02-14T04:09:50.480Z,7.24
2019-02-14T04:10:50.471Z,7.25
2019-02-14T04:11:50.464Z,7.17
2019-02-14T04:12:50.528Z,7.25
2019-02-14T04:13:50.478Z,7.12
2019-02-14T04:14:50.427Z,7.23
2019-02-14T04:15:50.415Z,7.23
2019-02-14T04:16:50.404Z,7.17
2019-02-14T04:17:50.472Z,7.24
2019-02-14T04:18:50.414Z,7.24
2019-02-14T04:19:50.384Z,7.35
2019-02-14T04:20:50.356Z,7.28
2019-02-14T04:21:50.347Z,7.23
2019-02-14T04:22:50.378Z,7.23
2019-02-14T04:23:50.324Z,7.25
2019-02-14T04:24:50.388Z,7.34
2019-02-14T04:25:50.307Z,7.27
2019-02-14T04:26:50.298Z,7.23
2019-02-14T04:27:50.286Z,7.16
2019-02-14T04:28:50.339Z,7.24
2019-02-14T04:29:50.270Z,7.24
2019-02-14T04:30:50.249Z,7.24
2019-02-14T04:31:50.251Z,7.24
2019-02-14T04:32:50.239Z,7.24
2019-02-14T04:33:50.226Z,7.21
2019-02-14T04:34:50.259Z,7.23
2019-02-14T04:35:50.238Z,7.21
2019-02-14T04:36:50.185Z,7.24
2019-02-14T04:37:50.180Z,7.25
2019-02-14T04:38:50.163Z,7.27
2019-02-14T04:39:50.159Z,7.23
2019-02-14T04:40:50.194Z,7.17
2019-02-14T04:41:50.133Z,7.25
2019-02-14T04:42:50.126Z,7.15
2019-02-14T04:43:50.116Z,7.21
2019-02-14T04:44:50.136Z,7.27
2019-02-14T04:45:50.140Z,7.27
2019-02-14T04:46:50.081Z,7.23
2019-02-14T04:47:50.073Z,7.23
2019-02-14T04:48:50.057Z,7.24
2019-02-14T04:49:50.131Z,7.27
2019-02-14T04:50:50.084Z,7.24
2019-02-14T04:51:50.035Z,7.24
2019-02-14T04:52:50.069Z,7.28
2019-02-14T04:53:50.017Z,7.30
2019-02-14T04:54:49.999Z,7.24
2019-02-14T04:55:49.992Z,7.21
2019-02-14T04:56:50.000Z,7.30
2019-02-14T04:57:50.016Z,7.27
2019-02-14T04:58:49.961Z,7.25
2019-02-14T04:59:49.946Z,7.23
2019-02-14T05:00:49.937Z,7.23
2019-02-14T05:01:49.969Z,7.23
2019-02-14T05:02:49.954Z,7.31
2019-02-14T05:03:49.899Z,7.28
2019-02-14T05:04:49.893Z,7.28
2019-02-14T05:05:49.903Z,7.28
2019-02-14T05:06:49.872Z,7.30
2019-02-14T05:07:49.925Z,7.37
2019-02-14T05:08:49.856Z,7.31
2019-02-14T05:09:49.836Z,7.34
2019-02-14T05:10:49.889Z,7.34
2019-02-14T05:11:49.819Z,7.30
2019-02-14T05:12:49.811Z,7.39
2019-02-14T05:13:49.896Z,7.37
2019-02-14T05:14:49.838Z,7.28
2019-02-14T05:15:49.773Z,7.40
2019-02-14T05:16:49.765Z,7.35
2019-02-14T05:17:49.753Z,7.45
2019-02-14T05:18:49.740Z,7.50
2019-02-14T05:19:49.747Z,7.45
2019-02-14T05:20:49.767Z,7.40
2019-02-14T05:21:49.711Z,7.43
2019-02-14T05:22:49.772Z,7.39
2019-02-14T05:23:49.691Z,7.42
2019-02-14T05:24:49.680Z,7.40
2019-02-14T05:25:49.714Z,7.42
2019-02-14T05:26:49.677Z,7.45
2019-02-14T05:27:49.668Z,7.45
2019-02-14T05:28:49.677Z,7.40
2019-02-14T05:29:49.731Z,7.46
2019-02-14T05:30:49.731Z,7.28
2019-02-14T05:31:49.608Z,7.43
2019-02-14T05:32:49.601Z,7.37
2019-02-14T05:33:49.587Z,7.42
2019-02-14T05:34:49.577Z,7.37
2019-02-14T05:35:49.613Z,7.45
2019-02-14T05:36:52.838Z,7.43
2019-02-14T05:37:50.566Z,7.40
2019-02-14T05:38:50.339Z,7.42
2019-02-14T05:39:49.518Z,7.40
2019-02-14T05:40:49.523Z,7.46
2019-02-14T05:41:49.549Z,7.48
2019-02-14T05:42:49.516Z,7.48
2019-02-14T05:43:49.503Z,7.50
2019-02-14T05:44:49.479Z,7.43
2019-02-14T05:45:49.493Z,7.49
2019-02-14T05:46:49.497Z,7.50
2019-02-14T05:47:49.448Z,7.45
2019-02-14T05:48:49.471Z,7.46
2019-02-14T05:49:49.420Z,7.45
2019-02-14T05:50:49.408Z,7.45
2019-02-14T05:51:49.449Z,7.48
2019-02-14T05:52:49.383Z,7.50
2019-02-14T05:53:49.393Z,7.53
2019-02-14T05:54:49.371Z,7.53
2019-02-14T05:55:49.358Z,7.63
2019-02-14T05:56:49.391Z,7.50
2019-02-14T05:57:49.330Z,7.52
2019-02-14T05:58:49.317Z,7.43
2019-02-14T05:59:49.316Z,7.46
2019-02-14T06:00:49.307Z,7.45
2019-02-14T06:01:49.334Z,7.50
2019-02-14T06:02:49.347Z,7.45
2019-02-14T06:03:49.316Z,7.43
2019-02-14T06:04:49.262Z,7.45
2019-02-14T06:05:49.249Z,7.46
2019-02-14T06:06:49.255Z,7.40
2019-02-14T06:07:49.230Z,7.37
2019-02-14T06:08:49.251Z,7.42
2019-02-14T06:09:49.212Z,7.46
2019-02-14T06:10:49.216Z,7.34
2019-02-14T06:11:49.185Z,7.30
2019-02-14T06:12:49.176Z,7.32
2019-02-14T06:13:49.234Z,7.27
2019-02-14T06:14:49.157Z,7.32
2019-02-14T06:15:49.173Z,7.32
2019-02-14T06:16:49.148Z,7.40
2019-02-14T06:17:49.120Z,7.46
2019-02-14T06:18:49.124Z,7.43
2019-02-14T06:19:49.151Z,7.37
2019-02-14T06:20:49.119Z,7.27
2019-02-14T06:21:49.127Z,7.37
2019-02-14T06:22:49.101Z,7.37
2019-02-14T06:23:49.055Z,7.37
2019-02-14T06:24:49.048Z,7.32
2019-02-14T06:25:49.045Z,7.27
2019-02-14T06:26:49.075Z,7.32
2019-02-14T06:27:49.076Z,7.37
2019-02-14T06:28:49.003Z,7.46
2019-02-14T06:29:49.011Z,7.45
2019-02-14T06:30:48.987Z,7.40
2019-02-14T06:31:48.968Z,7.45
2019-02-14T06:32:48.968Z,7.48
2019-02-14T06:33:48.994Z,7.46
2019-02-14T06:34:48.955Z,7.48
2019-02-14T06:35:48.983Z,7.45
2019-02-14T06:36:48.927Z,7.43
2019-02-14T06:37:49.042Z,7.45
2019-02-14T06:38:48.999Z,7.43
2019-02-14T06:39:48.905Z,7.45
2019-02-14T06:40:48.875Z,7.42
2019-02-14T06:41:48.876Z,7.42
2019-02-14T06:42:48.861Z,7.50
2019-02-14T06:43:48.886Z,7.45
2019-02-14T06:44:48.848Z,7.32
2019-02-14T06:45:48.826Z,7.45
2019-02-14T06:46:49.817Z,7.40
2019-02-14T06:47:48.840Z,7.45
2019-02-14T06:48:48.799Z,7.43
2019-02-14T06:49:48.807Z,7.50
2019-02-14T06:50:48.787Z,7.46
2019-02-14T06:51:48.802Z,7.46
2019-02-14T06:52:48.801Z,7.39
2019-02-14T06:53:48.754Z,7.50
2019-02-14T06:54:48.743Z,7.48
2019-02-14T06:55:48.751Z,7.35
2019-02-14T06:56:48.727Z,7.45
2019-02-14T06:57:48.700Z,7.43
2019-02-14T06:58:48.748Z,7.45
2019-02-14T06:59:48.678Z,7.46
2019-02-14T07:00:48.663Z,7.53
2019-02-14T07:01:48.650Z,7.67
2019-02-14T07:02:48.644Z,7.57
2019-02-14T07:03:48.713Z,7.53
2019-02-14T07:04:48.623Z,7.69
2019-02-14T07:05:48.614Z,7.71
2019-02-14T07:06:48.596Z,7.68
2019-02-14T07:07:48.589Z,7.72
2019-02-14T07:08:48.642Z,7.68
2019-02-14T07:09:48.567Z,7.67
2019-02-14T07:10:48.566Z,7.68
2019-02-14T07:11:48.557Z,7.67
2019-02-14T07:12:48.582Z,7.68
2019-02-14T07:13:48.592Z,7.64
2019-02-14T07:14:49.295Z,7.64
2019-02-14T07:15:48.501Z,7.69
2019-02-14T07:16:48.500Z,7.71
2019-02-14T07:17:48.482Z,7.69
2019-02-14T07:18:48.471Z,7.61
2019-02-14T07:19:48.512Z,7.63
2019-02-14T07:20:48.454Z,7.67
2019-02-14T07:21:48.445Z,7.61
2019-02-14T07:22:48.439Z,7.63
2019-02-14T07:23:48.447Z,7.61
2019-02-14T07:24:48.458Z,7.58
2019-02-14T07:25:48.455Z,7.57
2019-02-14T07:26:48.398Z,7.64
2019-02-14T07:27:48.394Z,7.71
2019-02-14T07:28:48.389Z,7.57
2019-02-14T07:29:48.351Z,7.58
2019-02-14T07:30:48.351Z,7.57
2019-02-14T07:31:48.370Z,7.68
2019-02-14T07:32:48.324Z,7.58
2019-02-14T07:33:48.321Z,7.55
2019-02-14T07:34:48.339Z,7.57
2019-02-14T07:35:48.325Z,7.53
2019-02-14T07:36:48.319Z,7.55
2019-02-14T07:37:48.361Z,7.57
2019-02-14T07:38:48.250Z,7.60
2019-02-14T07:39:48.250Z,7.61
2019-02-14T07:40:48.260Z,7.68
2019-02-14T07:41:48.235Z,7.68
2019-02-14T07:42:48.256Z,7.68
2019-02-14T07:43:48.209Z,7.68
2019-02-14T07:44:48.190Z,7.69
2019-02-14T07:45:48.233Z,7.69
2019-02-14T07:46:48.172Z,7.69
2019-02-14T07:47:48.191Z,7.64
2019-02-14T07:48:48.212Z,7.63
2019-02-14T07:49:48.153Z,7.57
2019-02-14T07:50:48.142Z,7.58
2019-02-14T07:51:48.657Z,7.68
2019-02-14T07:52:48.141Z,7.68
2019-02-14T07:53:48.144Z,7.71
2019-02-14T07:54:48.088Z,7.68
2019-02-14T07:55:48.065Z,7.67
2019-02-14T07:56:48.064Z,7.63
2019-02-14T07:57:48.105Z,7.64
2019-02-14T07:58:48.099Z,7.64
2019-02-14T07:59:48.028Z,7.74
2019-02-14T08:00:48.011Z,7.69
2019-02-14T08:01:48.016Z,7.68
2019-02-14T08:02:47.986Z,7.71
2019-02-14T08:03:48.027Z,7.60
2019-02-14T08:04:48.039Z,7.69
2019-02-14T08:05:47.969Z,7.74
2019-02-14T08:06:47.957Z,7.69
2019-02-14T08:07:47.979Z,7.64
2019-02-14T08:08:47.986Z,7.63
2019-02-14T08:09:47.953Z,7.68
2019-02-14T08:10:47.897Z,7.63
2019-02-14T08:11:47.890Z,7.68
2019-02-14T08:12:47.887Z,7.71
2019-02-14T08:13:47.894Z,7.69
2019-02-14T08:14:47.937Z,7.69
2019-02-14T08:15:47.862Z,7.79
2019-02-14T08:16:47.838Z,7.80
2019-02-14T08:17:47.834Z,7.75
2019-02-14T08:18:47.809Z,7.80
2019-02-14T08:19:47.801Z,7.86
2019-02-14T08:20:47.821Z,7.87
2019-02-14T08:21:47.771Z,7.90
2019-02-14T08:22:47.760Z,7.79
2019-02-14T08:23:47.747Z,7.83
2019-02-14T08:24:48.990Z,7.89
2019-02-14T08:25:47.769Z,7.83
2019-02-14T08:26:47.728Z,7.85
2019-02-14T08:27:47.707Z,7.86
2019-02-14T08:28:47.738Z,7.92
2019-02-14T08:29:47.687Z,7.89
2019-02-14T08:30:47.762Z,7.87
2019-02-14T08:31:47.669Z,7.86
2019-02-14T08:32:47.653Z,7.83
2019-02-14T08:33:47.636Z,7.83
2019-02-14T08:34:47.649Z,7.83
2019-02-14T08:35:47.662Z,7.85
2019-02-14T08:36:47.603Z,7.79
2019-02-14T08:37:47.599Z,7.85
2019-02-14T08:38:47.582Z,7.90
2019-02-14T08:39:47.569Z,7.98
2019-02-14T08:40:47.642Z,7.95
2019-02-14T08:41:47.548Z,7.89
2019-02-14T08:42:47.532Z,8.02
2019-02-14T08:43:47.530Z,8.07
2019-02-14T08:44:47.514Z,8.02
2019-02-14T08:45:47.542Z,8.02
2019-02-14T08:46:47.552Z,8.07
2019-02-14T08:47:47.486Z,8.07
2019-02-14T08:48:47.469Z,8.10
2019-02-14T08:49:47.456Z,8.05
2019-02-14T08:50:47.450Z,8.08
2019-02-14T08:51:47.543Z,8.18
2019-02-14T08:52:47.441Z,8.18
2019-02-14T08:53:47.418Z,8.18
2019-02-14T08:54:47.412Z,8.28
2019-02-14T08:55:47.387Z,8.23
2019-02-14T08:56:47.381Z,8.16
2019-02-14T08:57:47.453Z,8.23
2019-02-14T08:58:47.402Z,8.20
2019-02-14T08:59:47.347Z,8.23
2019-02-14T09:00:47.359Z,8.22
2019-02-14T09:01:47.344Z,8.29
2019-02-14T09:02:47.372Z,8.23
2019-02-14T09:03:47.357Z,8.19
2019-02-14T09:04:47.295Z,8.22
2019-02-14T09:05:47.283Z,8.22
2019-02-14T09:06:47.269Z,8.25
2019-02-14T09:07:54.222Z,8.25
2019-02-14T09:08:48.282Z,8.33
2019-02-14T09:09:47.241Z,8.48
2019-02-14T09:10:47.238Z,8.38
2019-02-14T09:11:47.219Z,8.43
2019-02-14T09:12:47.212Z,8.38
2019-02-14T09:13:47.258Z,8.43
2019-02-14T09:14:47.194Z,8.47
2019-02-14T09:15:47.183Z,8.50
2019-02-14T09:16:47.273Z,8.48
2019-02-14T09:17:47.153Z,8.52
2019-02-14T09:18:47.248Z,8.61
2019-02-14T09:19:47.162Z,8.58
2019-02-14T09:20:47.223Z,8.55
2019-02-14T09:21:47.108Z,8.61
2019-02-14T09:22:47.314Z,8.68
2019-02-14T09:23:47.093Z,8.59
2019-02-14T09:24:47.398Z,8.71
2019-02-14T09:25:47.086Z,8.79
2019-02-14T09:26:47.047Z,8.74
2019-02-14T09:27:47.040Z,8.65
2019-02-14T09:28:47.033Z,8.76
2019-02-14T09:29:47.059Z,8.71
2019-02-14T09:30:47.063Z,8.77
2019-02-14T09:31:47.043Z,8.79
2019-02-14T09:32:46.987Z,8.80
2019-02-14T09:33:46.997Z,8.79
2019-02-14T09:34:47.006Z,8.83
2019-02-14T09:35:46.959Z,8.77
2019-02-14T09:36:46.946Z,8.77
2019-02-14T09:37:46.936Z,8.91
2019-02-14T09:38:46.947Z,8.89
2019-02-14T09:39:46.921Z,8.91
2019-02-14T09:40:46.940Z,8.87
2019-02-14T09:41:46.939Z,8.98
2019-02-14T09:42:46.885Z,8.94
2019-02-14T09:43:46.909Z,9.10
2019-02-14T09:44:46.860Z,9.11
2019-02-14T09:45:46.841Z,9.13
2019-02-14T09:46:46.860Z,9.24
2019-02-14T09:47:46.871Z,9.24
2019-02-14T09:48:46.817Z,9.29
2019-02-14T09:49:46.818Z,9.32
2019-02-14T09:50:46.791Z,9.23
2019-02-14T09:51:46.819Z,9.31
2019-02-14T09:52:46.816Z,9.21
2019-02-14T09:53:46.762Z,9.21
2019-02-14T09:54:46.750Z,9.17
2019-02-14T09:55:46.726Z,9.11
2019-02-14T09:56:46.766Z,9.15
2019-02-14T09:57:46.727Z,9.18
2019-02-14T09:58:46.758Z,9.23
2019-02-14T09:59:46.692Z,9.24
2019-02-14T10:00:46.673Z,9.21
2019-02-14T10:01:46.707Z,9.35
2019-02-14T10:02:46.660Z,9.40
2019-02-14T10:03:47.055Z,9.31
2019-02-14T10:04:46.647Z,9.40
2019-02-14T10:05:46.633Z,9.33
2019-02-14T10:06:46.747Z,9.32
2019-02-14T10:07:46.666Z,9.36
2019-02-14T10:08:46.581Z,9.36
2019-02-14T10:09:46.640Z,9.40
2019-02-14T10:10:46.569Z,9.50
2019-02-14T10:11:46.551Z,9.51
2019-02-14T10:12:46.547Z,9.50
2019-02-14T10:13:46.534Z,9.51
2019-02-14T10:14:46.512Z,9.53
2019-02-14T10:15:46.614Z,9.39
2019-02-14T10:16:46.504Z,9.42
2019-02-14T10:17:46.487Z,9.40
2019-02-14T10:18:46.480Z,9.35
2019-02-14T10:19:46.483Z,9.43
2019-02-14T10:20:46.489Z,9.35
2019-02-14T10:21:46.436Z,9.47
2019-02-14T10:22:46.505Z,9.53
2019-02-14T10:23:46.457Z,9.51
2019-02-14T10:24:46.405Z,9.51
2019-02-14T10:25:46.394Z,9.46
2019-02-14T10:26:46.427Z,9.51
2019-02-14T10:27:46.391Z,9.43
2019-02-14T10:28:46.393Z,9.36
2019-02-14T10:29:46.354Z,9.33
2019-02-14T10:30:46.339Z,9.29
2019-02-14T10:31:46.383Z,9.38
2019-02-14T10:32:46.332Z,9.40
2019-02-14T10:33:46.311Z,9.42
2019-02-14T10:34:46.312Z,9.36
2019-02-14T10:35:46.292Z,9.32
2019-02-14T10:36:46.271Z,9.36
2019-02-14T10:37:46.357Z,9.35
2019-02-14T10:38:46.303Z,9.38
2019-02-14T10:39:46.251Z,9.36
2019-02-14T10:40:46.240Z,9.35
2019-02-14T10:41:46.394Z,9.36
2019-02-14T10:42:46.236Z,9.33
2019-02-14T10:43:48.845Z,9.46
2019-02-14T10:44:46.202Z,9.50
2019-02-14T10:45:46.230Z,9.43
2019-02-14T10:46:46.168Z,9.39
2019-02-14T10:47:46.211Z,9.48
2019-02-14T10:48:46.157Z,9.40
2019-02-14T10:49:46.133Z,9.36
2019-02-14T10:50:46.122Z,9.35
2019-02-14T10:51:46.119Z,9.29
2019-02-14T10:52:46.146Z,9.33
2019-02-14T10:53:46.086Z,9.26
2019-02-14T10:54:46.083Z,9.32
2019-02-14T10:55:46.127Z,9.36
2019-02-14T10:56:46.057Z,9.43
2019-02-14T10:57:46.072Z,9.51
2019-02-14T10:58:46.060Z,9.48
2019-02-14T10:59:46.034Z,9.53
2019-02-14T11:00:46.022Z,9.51
2019-02-14T11:01:46.039Z,9.48
2019-02-14T11:02:45.993Z,9.64
2019-02-14T11:03:46.010Z,9.65
2019-02-14T11:04:47.127Z,9.66
2019-02-14T11:05:45.978Z,9.58
2019-02-14T11:06:45.994Z,9.64
2019-02-14T11:07:45.941Z,9.65
2019-02-14T11:08:45.931Z,9.71
2019-02-14T11:09:45.935Z,9.68
2019-02-14T11:10:45.935Z,9.83
2019-02-14T11:11:45.949Z,9.79
2019-02-14T11:12:45.926Z,9.84
2019-02-14T11:13:45.875Z,9.87
2019-02-14T11:14:45.873Z,9.78
2019-02-14T11:15:45.858Z,9.76
2019-02-14T11:16:45.878Z,9.76
2019-02-14T11:17:45.862Z,9.76
2019-02-14T11:18:45.916Z,9.72
2019-02-14T11:19:45.911Z,9.75
2019-02-14T11:20:45.877Z,9.71
2019-02-14T11:21:45.799Z,9.72
2019-02-14T11:22:45.813Z,9.64
2019-02-14T11:23:45.824Z,9.69
2019-02-14T11:24:45.829Z,9.53
2019-02-14T11:25:45.758Z,9.35
2019-02-14T11:26:45.734Z,9.42
2019-02-14T11:27:45.763Z,9.39
2019-02-14T11:28:45.777Z,9.36
2019-02-14T11:29:45.743Z,9.56
2019-02-14T11:30:45.692Z,9.53
2019-02-14T11:31:45.687Z,9.61
2019-02-14T11:32:45.665Z,9.75
2019-02-14T11:33:45.704Z,9.61
2019-02-14T11:34:45.686Z,9.71
2019-02-14T11:35:45.626Z,9.75
2019-02-14T11:36:45.663Z,9.83
2019-02-14T11:37:45.617Z,9.81
2019-02-14T11:38:45.601Z,9.87
2019-02-14T11:39:45.584Z,9.83
2019-02-14T11:40:45.628Z,9.75
2019-02-14T11:41:45.566Z,9.83
2019-02-14T11:42:45.551Z,9.74
2019-02-14T11:43:45.542Z,9.79
2019-02-14T11:44:45.548Z,9.96
2019-02-14T11:45:45.743Z,9.99
2019-02-14T11:46:51.250Z,9.97
2019-02-14T11:47:46.495Z,10.02
2019-02-14T11:48:45.486Z,10.22
2019-02-14T11:49:45.478Z,10.14
2019-02-14T11:50:45.690Z,10.17
2019-02-14T11:51:45.484Z,10.18
2019-02-14T11:52:45.449Z,10.23
2019-02-14T11:53:45.610Z,10.26
2019-02-14T11:54:45.434Z,10.26
2019-02-14T11:55:45.415Z,10.23
2019-02-14T11:56:45.586Z,10.17
2019-02-14T11:57:45.401Z,10.17
2019-02-14T11:58:45.434Z,10.23
2019-02-14T11:59:45.374Z,10.20
2019-02-14T12:00:45.404Z,10.14
2019-02-14T12:01:45.347Z,10.05
2019-02-14T12:02:45.337Z,10.04
2019-02-14T12:03:45.418Z,9.99
2019-02-14T12:04:45.374Z,10.01
2019-02-14T12:05:45.398Z,9.96
2019-02-14T12:06:45.598Z,10.04
2019-02-14T12:07:45.284Z,10.01
2019-02-14T12:08:57.718Z,10.18
2019-02-14T12:09:46.264Z,10.29
2019-02-14T12:10:45.254Z,10.36
2019-02-14T12:11:45.464Z,10.33
2019-02-14T12:12:45.273Z,10.36
2019-02-14T12:13:45.235Z,10.26
2019-02-14T12:14:45.226Z,10.26
2019-02-14T12:15:45.204Z,10.36
2019-02-14T12:16:45.183Z,10.42
2019-02-14T12:17:45.201Z,10.47
2019-02-14T12:18:45.588Z,10.44
2019-02-14T12:19:45.166Z,10.52
2019-02-14T12:20:45.143Z,10.47
2019-02-14T12:21:45.173Z,10.45
2019-02-14T12:22:47.002Z,10.47
2019-02-14T12:23:45.109Z,10.45
2019-02-14T12:24:45.101Z,10.45
2019-02-14T12:25:45.125Z,10.41
2019-02-14T12:26:45.074Z,10.41
2019-02-14T12:27:45.066Z,10.41
2019-02-14T12:28:45.107Z,10.33
2019-02-14T12:29:45.049Z,10.33
2019-02-14T12:30:45.056Z,10.29
2019-02-14T12:31:45.063Z,10.29
2019-02-14T12:32:45.029Z,10.36
2019-02-14T12:33:45.070Z,10.32
2019-02-14T12:34:45.023Z,10.38
2019-02-14T12:35:45.091Z,10.38
2019-02-14T12:36:44.991Z,10.52
2019-02-14T12:37:44.960Z,10.38
2019-02-14T12:38:45.097Z,10.38
2019-02-14T12:39:45.000Z,10.47
2019-02-14T12:40:44.935Z,10.56
2019-02-14T12:41:44.916Z,10.53
2019-02-14T12:42:44.913Z,10.60
2019-02-14T12:43:44.895Z,10.59
2019-02-14T12:44:44.927Z,10.68
2019-02-14T12:45:44.930Z,10.71
2019-02-14T12:46:44.861Z,10.81
2019-02-14T12:47:44.851Z,10.74
2019-02-14T12:48:44.879Z,10.84
2019-02-14T12:49:44.833Z,10.78
2019-02-14T12:50:44.877Z,10.84
2019-02-14T12:51:44.810Z,10.79
2019-02-14T12:52:44.796Z,10.78
2019-02-14T12:53:44.842Z,10.78
2019-02-14T12:54:44.793Z,10.71
2019-02-14T12:55:44.762Z,10.78
2019-02-14T12:56:44.800Z,10.70
2019-02-14T12:57:44.744Z,10.66
2019-02-14T12:58:44.730Z,10.71
2019-02-14T12:59:44.755Z,10.71
2019-02-14T13:00:44.708Z,10.81
2019-02-14T13:01:44.742Z,10.76
2019-02-14T13:02:44.708Z,10.76
2019-02-14T13:03:44.684Z,10.71
2019-02-14T13:04:44.664Z,10.78
2019-02-14T13:05:44.659Z,10.82
2019-02-14T13:06:44.678Z,10.81
2019-02-14T13:07:44.639Z,10.74
2019-02-14T13:08:44.630Z,10.81
2019-02-14T13:09:44.612Z,10.82
2019-02-14T13:10:44.664Z,10.89
2019-02-14T13:11:44.588Z,10.96
2019-02-14T13:12:44.581Z,10.97
2019-02-14T13:13:49.366Z,10.94
2019-02-14T13:14:45.565Z,11.00
2019-02-14T13:15:44.556Z,10.96